サイパン島 の空港の天気 - METARとTAF

サイパン国際空港 ( PGSN / SPN ) - 北マリアナ諸島 サイパン島
飛行場実況気象(Metar)
観測時間01/20 10:54 ChST (01/20 00:54 UTC)
風向・風速東北東 7m/s 瞬間風速10m/s
視程10km以上
天気現象
少しの雲 雲底高度 640m
気温28.9℃
湿度63%
気圧1017.3hPa
METARPGSN 200054Z 07014G19KT 10SM FEW021 29/21 A2998 RMK AO2 SLP173 T02890211
過去の天気等 Google飛行場航空写真 Wunderground天気予報

過去48時間のMETAR

飛行場予報(TAF)
発表時間: 1/20 09:20 ChST (1/19 23:20 UTC)
予報対象時間: 20日10時 ChST ~ 21日10時 ChST
風向・風速東 6m/s 瞬間風速 10m/s
視程10km以上
天気現象周辺でしゅう雨
少しの雲 雲底高度 610m
全天の4割程度の雲 雲底高度 1,220m
20日18時 ChST から
風向・風速東 7m/s
視程10km以上
天気現象周辺でしゅう雨
全天の4割程度の雲 雲底高度 610m
全天の4割程度の雲 雲底高度 1,220m
全天の8割程度の雲 雲底高度 3,050m
TAF PGSN 192320Z 2000/2024 08012G20KT P6SM VCSH FEW020 SCT040
FM200800 08014KT P6SM VCSH SCT020 SCT040 BKN100